Litchfield, Maine
Current Conditions -  °F | °C
As of 7:53 PM on Saturday 22 Nov 2014 (Local Time) from KAUG Reporting Station
Overcast Overcast  
Wind Chill: 26°   Ceiling: 10000
Heat Index: 33°   Visibility: 10mi
Dew Point:   Wind: 8mph
Humidity: 37%   Direction: 210°SSW
Pressure: 29.93"   Gusts: NA
Location:  44.22°N, 69.94°W
Report Text: KAUG 230053Z AUTO 21007KT 10SM FEW070 OVC100 01/M13 A2993 RMK AO2 SLP140 T00061128
Loading
Personal Weather Stations






























Interactive Weather Map New forecast layout! Learn more

10-Day Weather Forecast

Advertisements
Track Severe Weather on mobile